sensor_id;sensor_type;location;lat;lon;timestamp;temperature;humidity
7844;DHT22;3967;48.702;9.326;2023-04-15T00:00:56;8.20;84.90
7844;DHT22;3967;48.702;9.326;2023-04-15T00:03:23;8.10;84.30
7844;DHT22;3967;48.702;9.326;2023-04-15T00:05:50;8.00;84.90
7844;DHT22;3967;48.702;9.326;2023-04-15T00:08:17;8.10;85.30
7844;DHT22;3967;48.702;9.326;2023-04-15T00:10:44;8.00;85.30
7844;DHT22;3967;48.702;9.326;2023-04-15T00:13:12;8.00;85.80
7844;DHT22;3967;48.702;9.326;2023-04-15T00:15:39;8.00;86.00
7844;DHT22;3967;48.702;9.326;2023-04-15T00:18:06;7.80;86.20
7844;DHT22;3967;48.702;9.326;2023-04-15T00:20:34;7.70;86.60
7844;DHT22;3967;48.702;9.326;2023-04-15T00:23:01;7.80;86.80
7844;DHT22;3967;48.702;9.326;2023-04-15T00:25:30;7.90;87.10
7844;DHT22;3967;48.702;9.326;2023-04-15T00:27:56;7.90;86.80
7844;DHT22;3967;48.702;9.326;2023-04-15T00:30:23;7.70;87.00
7844;DHT22;3967;48.702;9.326;2023-04-15T00:32:51;7.50;87.20
7844;DHT22;3967;48.702;9.326;2023-04-15T00:35:18;7.20;88.60
7844;DHT22;3967;48.702;9.326;2023-04-15T00:37:44;7.10;90.20
7844;DHT22;3967;48.702;9.326;2023-04-15T00:40:12;7.20;90.60
7844;DHT22;3967;48.702;9.326;2023-04-15T00:42:39;7.20;90.50
7844;DHT22;3967;48.702;9.326;2023-04-15T00:45:06;7.10;90.30
7844;DHT22;3967;48.702;9.326;2023-04-15T00:47:35;7.00;90.50
7844;DHT22;3967;48.702;9.326;2023-04-15T00:50:03;6.80;90.60
7844;DHT22;3967;48.702;9.326;2023-04-15T00:52:30;6.80;91.00
7844;DHT22;3967;48.702;9.326;2023-04-15T00:54:57;6.80;91.00
7844;DHT22;3967;48.702;9.326;2023-04-15T00:57:25;6.90;91.10
7844;DHT22;3967;48.702;9.326;2023-04-15T00:59:52;7.00;90.90
7844;DHT22;3967;48.702;9.326;2023-04-15T01:02:21;7.10;90.60
7844;DHT22;3967;48.702;9.326;2023-04-15T01:04:48;7.00;90.40
7844;DHT22;3967;48.702;9.326;2023-04-15T01:07:16;6.90;90.80
7844;DHT22;3967;48.702;9.326;2023-04-15T01:09:43;6.80;91.10
7844;DHT22;3967;48.702;9.326;2023-04-15T01:12:16;6.90;91.00
7844;DHT22;3967;48.702;9.326;2023-04-15T01:14:43;7.00;91.00
7844;DHT22;3967;48.702;9.326;2023-04-15T01:17:10;7.00;90.80
7844;DHT22;3967;48.702;9.326;2023-04-15T01:19:37;6.90;90.90
7844;DHT22;3967;48.702;9.326;2023-04-15T01:22:03;6.90;91.00
7844;DHT22;3967;48.702;9.326;2023-04-15T01:24:31;6.90;90.90
7844;DHT22;3967;48.702;9.326;2023-04-15T01:27:01;6.60;91.00
7844;DHT22;3967;48.702;9.326;2023-04-15T01:29:32;6.50;91.50
7844;DHT22;3967;48.702;9.326;2023-04-15T01:31:58;6.40;91.90
7844;DHT22;3967;48.702;9.326;2023-04-15T01:34:25;6.40;92.20
7844;DHT22;3967;48.702;9.326;2023-04-15T01:36:52;6.50;91.90
7844;DHT22;3967;48.702;9.326;2023-04-15T01:39:19;6.50;91.60
7844;DHT22;3967;48.702;9.326;2023-04-15T01:41:46;6.60;91.60
7844;DHT22;3967;48.702;9.326;2023-04-15T01:44:12;6.50;91.50
7844;DHT22;3967;48.702;9.326;2023-04-15T01:46:39;6.50;91.50
7844;DHT22;3967;48.702;9.326;2023-04-15T01:49:06;6.50;91.50
7844;DHT22;3967;48.702;9.326;2023-04-15T01:51:33;6.50;91.40
7844;DHT22;3967;48.702;9.326;2023-04-15T01:53:59;6.20;91.60
7844;DHT22;3967;48.702;9.326;2023-04-15T01:56:26;5.70;92.80
7844;DHT22;3967;48.702;9.326;2023-04-15T01:58:53;5.60;93.70
7844;DHT22;3967;48.702;9.326;2023-04-15T02:01:20;5.70;94.00
7844;DHT22;3967;48.702;9.326;2023-04-15T02:03:47;5.80;93.80
7844;DHT22;3967;48.702;9.326;2023-04-15T02:06:14;5.90;93.60
7844;DHT22;3967;48.702;9.326;2023-04-15T02:08:41;6.10;93.20
7844;DHT22;3967;48.702;9.326;2023-04-15T02:11:08;6.20;92.80
7844;DHT22;3967;48.702;9.326;2023-04-15T02:13:38;6.30;92.50
7844;DHT22;3967;48.702;9.326;2023-04-15T02:16:15;6.30;92.40
7844;DHT22;3967;48.702;9.326;2023-04-15T02:18:44;6.30;92.20
7844;DHT22;3967;48.702;9.326;2023-04-15T02:21:11;6.30;92.10
7844;DHT22;3967;48.702;9.326;2023-04-15T02:23:37;6.20;91.90
7844;DHT22;3967;48.702;9.326;2023-04-15T02:26:04;5.90;92.20
7844;DHT22;3967;48.702;9.326;2023-04-15T02:28:30;5.60;92.80
7844;DHT22;3967;48.702;9.326;2023-04-15T02:30:57;5.30;93.90
7844;DHT22;3967;48.702;9.326;2023-04-15T02:33:25;5.10;94.90
7844;DHT22;3967;48.702;9.326;2023-04-15T02:35:52;5.40;94.90
7844;DHT22;3967;48.702;9.326;2023-04-15T02:38:18;5.50;94.70
7844;DHT22;3967;48.702;9.326;2023-04-15T02:40:45;5.60;94.30
7844;DHT22;3967;48.702;9.326;2023-04-15T02:43:12;5.60;94.10
7844;DHT22;3967;48.702;9.326;2023-04-15T02:45:38;5.70;94.20
7844;DHT22;3967;48.702;9.326;2023-04-15T02:48:05;5.70;94.00
7844;DHT22;3967;48.702;9.326;2023-04-15T02:50:32;5.80;93.60
7844;DHT22;3967;48.702;9.326;2023-04-15T02:52:59;5.90;93.40
7844;DHT22;3967;48.702;9.326;2023-04-15T02:55:27;5.90;93.30
7844;DHT22;3967;48.702;9.326;2023-04-15T02:57:54;5.70;93.30
7844;DHT22;3967;48.702;9.326;2023-04-15T03:00:21;5.60;93.50
7844;DHT22;3967;48.702;9.326;2023-04-15T03:02:50;5.40;93.90
7844;DHT22;3967;48.702;9.326;2023-04-15T03:05:22;5.30;94.10
7844;DHT22;3967;48.702;9.326;2023-04-15T03:07:51;5.30;94.40
7844;DHT22;3967;48.702;9.326;2023-04-15T03:10:18;5.20;94.60
7844;DHT22;3967;48.702;9.326;2023-04-15T03:12:45;5.30;94.80
7844;DHT22;3967;48.702;9.326;2023-04-15T03:15:12;5.10;94.80
7844;DHT22;3967;48.702;9.326;2023-04-15T03:17:39;4.70;95.70
7844;DHT22;3967;48.702;9.326;2023-04-15T03:20:06;4.60;96.80
7844;DHT22;3967;48.702;9.326;2023-04-15T03:22:33;4.60;97.10
7844;DHT22;3967;48.702;9.326;2023-04-15T03:24:59;4.80;97.40
7844;DHT22;3967;48.702;9.326;2023-04-15T03:27:26;4.90;96.90
7844;DHT22;3967;48.702;9.326;2023-04-15T03:29:53;5.20;96.30
7844;DHT22;3967;48.702;9.326;2023-04-15T03:32:19;5.30;95.70
7844;DHT22;3967;48.702;9.326;2023-04-15T03:34:46;5.40;95.40
7844;DHT22;3967;48.702;9.326;2023-04-15T03:37:13;5.30;95.20
7844;DHT22;3967;48.702;9.326;2023-04-15T03:39:39;5.30;95.10
7844;DHT22;3967;48.702;9.326;2023-04-15T03:42:07;5.20;95.50
7844;DHT22;3967;48.702;9.326;2023-04-15T03:44:33;5.10;95.70
7844;DHT22;3967;48.702;9.326;2023-04-15T03:47:00;5.30;95.70
7844;DHT22;3967;48.702;9.326;2023-04-15T03:49:27;5.30;95.30
7844;DHT22;3967;48.702;9.326;2023-04-15T03:51:54;5.10;95.30
7844;DHT22;3967;48.702;9.326;2023-04-15T03:54:21;4.90;95.90
7844;DHT22;3967;48.702;9.326;2023-04-15T03:56:48;4.60;96.50
7844;DHT22;3967;48.702;9.326;2023-04-15T03:59:14;4.60;97.20
7844;DHT22;3967;48.702;9.326;2023-04-15T04:01:41;4.80;96.90
7844;DHT22;3967;48.702;9.326;2023-04-15T04:04:08;4.70;96.70
7844;DHT22;3967;48.702;9.326;2023-04-15T04:06:35;4.80;96.60
7844;DHT22;3967;48.702;9.326;2023-04-15T04:09:01;4.90;96.30
7844;DHT22;3967;48.702;9.326;2023-04-15T04:11:28;4.80;96.00
7844;DHT22;3967;48.702;9.326;2023-04-15T04:13:55;4.80;96.10
7844;DHT22;3967;48.702;9.326;2023-04-15T04:16:22;4.80;96.00
7844;DHT22;3967;48.702;9.326;2023-04-15T04:18:49;4.80;96.20
7844;DHT22;3967;48.702;9.326;2023-04-15T04:21:15;4.60;96.40
7844;DHT22;3967;48.702;9.326;2023-04-15T04:23:42;4.60;96.60
7844;DHT22;3967;48.702;9.326;2023-04-15T04:26:09;4.40;96.80
7844;DHT22;3967;48.702;9.326;2023-04-15T04:28:36;4.40;97.60
7844;DHT22;3967;48.702;9.326;2023-04-15T04:31:02;4.50;97.40
7844;DHT22;3967;48.702;9.326;2023-04-15T04:33:29;4.60;97.20
7844;DHT22;3967;48.702;9.326;2023-04-15T04:35:56;4.60;96.90
7844;DHT22;3967;48.702;9.326;2023-04-15T04:38:23;4.60;96.80
7844;DHT22;3967;48.702;9.326;2023-04-15T04:40:49;4.60;96.90
7844;DHT22;3967;48.702;9.326;2023-04-15T04:43:17;4.60;96.80
7844;DHT22;3967;48.702;9.326;2023-04-15T04:45:43;4.50;96.80
7844;DHT22;3967;48.702;9.326;2023-04-15T04:48:10;4.50;96.90
7844;DHT22;3967;48.702;9.326;2023-04-15T04:50:37;4.50;96.60
7844;DHT22;3967;48.702;9.326;2023-04-15T04:53:03;4.50;96.80
7844;DHT22;3967;48.702;9.326;2023-04-15T04:55:30;4.20;97.10
7844;DHT22;3967;48.702;9.326;2023-04-15T04:57:57;4.10;97.60
7844;DHT22;3967;48.702;9.326;2023-04-15T05:00:24;4.30;97.70
7844;DHT22;3967;48.702;9.326;2023-04-15T05:02:51;4.30;97.40
7844;DHT22;3967;48.702;9.326;2023-04-15T05:05:18;4.40;97.10
7844;DHT22;3967;48.702;9.326;2023-04-15T05:07:44;4.20;97.00
7844;DHT22;3967;48.702;9.326;2023-04-15T05:10:11;4.10;97.60
7844;DHT22;3967;48.702;9.326;2023-04-15T05:12:40;4.20;97.70
7844;DHT22;3967;48.702;9.326;2023-04-15T05:15:07;4.30;97.60
7844;DHT22;3967;48.702;9.326;2023-04-15T05:17:34;4.40;97.60
7844;DHT22;3967;48.702;9.326;2023-04-15T05:20:02;4.50;97.30
7844;DHT22;3967;48.702;9.326;2023-04-15T05:22:29;4.60;96.90
7844;DHT22;3967;48.702;9.326;2023-04-15T05:24:55;4.70;96.60
7844;DHT22;3967;48.702;9.326;2023-04-15T05:27:22;4.70;96.40
7844;DHT22;3967;48.702;9.326;2023-04-15T05:29:50;4.60;96.30
7844;DHT22;3967;48.702;9.326;2023-04-15T05:32:17;4.70;96.20
7844;DHT22;3967;48.702;9.326;2023-04-15T05:34:43;4.70;96.00
7844;DHT22;3967;48.702;9.326;2023-04-15T05:37:10;4.80;95.90
7844;DHT22;3967;48.702;9.326;2023-04-15T05:39:37;4.70;96.20
7844;DHT22;3967;48.702;9.326;2023-04-15T05:42:04;4.60;96.30
7844;DHT22;3967;48.702;9.326;2023-04-15T05:44:31;4.50;96.60
7844;DHT22;3967;48.702;9.326;2023-04-15T05:46:58;4.40;97.00
7844;DHT22;3967;48.702;9.326;2023-04-15T05:49:25;4.60;97.40
7844;DHT22;3967;48.702;9.326;2023-04-15T05:51:52;4.70;96.70
7844;DHT22;3967;48.702;9.326;2023-04-15T05:54:19;4.80;96.30
7844;DHT22;3967;48.702;9.326;2023-04-15T05:56:48;4.80;96.70
7844;DHT22;3967;48.702;9.326;2023-04-15T05:59:14;4.70;97.50
7844;DHT22;3967;48.702;9.326;2023-04-15T06:01:41;4.80;97.00
7844;DHT22;3967;48.702;9.326;2023-04-15T06:04:08;4.90;96.50
7844;DHT22;3967;48.702;9.326;2023-04-15T06:06:35;4.90;96.40
7844;DHT22;3967;48.702;9.326;2023-04-15T06:09:03;5.00;96.70
7844;DHT22;3967;48.702;9.326;2023-04-15T06:11:30;5.20;96.30
7844;DHT22;3967;48.702;9.326;2023-04-15T06:13:56;5.40;95.40
7844;DHT22;3967;48.702;9.326;2023-04-15T06:16:23;5.60;94.70
7844;DHT22;3967;48.702;9.326;2023-04-15T06:18:50;5.90;94.80
7844;DHT22;3967;48.702;9.326;2023-04-15T06:21:17;6.00;94.20
7844;DHT22;3967;48.702;9.326;2023-04-15T06:23:43;5.90;93.40
7844;DHT22;3967;48.702;9.326;2023-04-15T06:26:10;5.90;93.60
7844;DHT22;3967;48.702;9.326;2023-04-15T06:28:37;6.10;92.80
7844;DHT22;3967;48.702;9.326;2023-04-15T06:31:04;6.30;92.20
7844;DHT22;3967;48.702;9.326;2023-04-15T06:33:30;6.50;91.70
7844;DHT22;3967;48.702;9.326;2023-04-15T06:35:57;6.60;92.20
7844;DHT22;3967;48.702;9.326;2023-04-15T06:38:24;6.50;92.10
7844;DHT22;3967;48.702;9.326;2023-04-15T06:40:50;6.70;91.70
7844;DHT22;3967;48.702;9.326;2023-04-15T06:43:17;6.90;91.80
7844;DHT22;3967;48.702;9.326;2023-04-15T06:45:45;7.10;91.40
7844;DHT22;3967;48.702;9.326;2023-04-15T06:48:12;7.30;91.90
7844;DHT22;3967;48.702;9.326;2023-04-15T06:50:38;7.50;91.20
7844;DHT22;3967;48.702;9.326;2023-04-15T06:53:06;7.80;90.60
7844;DHT22;3967;48.702;9.326;2023-04-15T06:55:32;7.70;90.70
7844;DHT22;3967;48.702;9.326;2023-04-15T06:57:59;7.50;91.00
7844;DHT22;3967;48.702;9.326;2023-04-15T07:00:26;7.60;91.10
7844;DHT22;3967;48.702;9.326;2023-04-15T07:02:54;7.50;90.60
7844;DHT22;3967;48.702;9.326;2023-04-15T07:05:21;7.60;91.00
7844;DHT22;3967;48.702;9.326;2023-04-15T07:07:47;7.60;90.90
7844;DHT22;3967;48.702;9.326;2023-04-15T07:10:14;7.80;90.80
7844;DHT22;3967;48.702;9.326;2023-04-15T07:12:41;7.70;90.60
7844;DHT22;3967;48.702;9.326;2023-04-15T07:15:08;7.70;91.00
7844;DHT22;3967;48.702;9.326;2023-04-15T07:17:35;7.60;91.10
7844;DHT22;3967;48.702;9.326;2023-04-15T07:20:02;7.70;91.20
7844;DHT22;3967;48.702;9.326;2023-04-15T07:22:30;7.70;91.20
7844;DHT22;3967;48.702;9.326;2023-04-15T07:24:57;7.70;91.30
7844;DHT22;3967;48.702;9.326;2023-04-15T07:27:23;7.60;91.60
7844;DHT22;3967;48.702;9.326;2023-04-15T07:29:50;7.80;91.40
7844;DHT22;3967;48.702;9.326;2023-04-15T07:32:18;7.70;91.60
7844;DHT22;3967;48.702;9.326;2023-04-15T07:34:45;7.70;91.80
7844;DHT22;3967;48.702;9.326;2023-04-15T07:37:12;8.00;91.50
7844;DHT22;3967;48.702;9.326;2023-04-15T07:39:39;8.10;91.30
7844;DHT22;3967;48.702;9.326;2023-04-15T07:42:05;8.20;91.20
7844;DHT22;3967;48.702;9.326;2023-04-15T07:44:32;8.40;90.80
7844;DHT22;3967;48.702;9.326;2023-04-15T07:47:00;8.60;90.40
7844;DHT22;3967;48.702;9.326;2023-04-15T07:49:27;8.50;90.40
7844;DHT22;3967;48.702;9.326;2023-04-15T07:51:54;8.60;90.40
7844;DHT22;3967;48.702;9.326;2023-04-15T07:54:23;8.70;89.80
7844;DHT22;3967;48.702;9.326;2023-04-15T07:56:50;8.90;89.90
7844;DHT22;3967;48.702;9.326;2023-04-15T07:59:16;9.10;89.30
7844;DHT22;3967;48.702;9.326;2023-04-15T08:01:43;9.00;88.20
7844;DHT22;3967;48.702;9.326;2023-04-15T08:04:10;9.20;88.70
7844;DHT22;3967;48.702;9.326;2023-04-15T08:06:37;9.50;87.10
7844;DHT22;3967;48.702;9.326;2023-04-15T08:09:06;9.70;86.10
7844;DHT22;3967;48.702;9.326;2023-04-15T08:11:33;9.90;85.70
7844;DHT22;3967;48.702;9.326;2023-04-15T08:14:00;10.10;83.20
7844;DHT22;3967;48.702;9.326;2023-04-15T08:16:27;10.20;82.90
7844;DHT22;3967;48.702;9.326;2023-04-15T08:18:55;10.50;83.60
7844;DHT22;3967;48.702;9.326;2023-04-15T08:21:23;10.60;82.40
7844;DHT22;3967;48.702;9.326;2023-04-15T08:23:51;11.20;81.50
7844;DHT22;3967;48.702;9.326;2023-04-15T08:26:19;11.50;80.60
7844;DHT22;3967;48.702;9.326;2023-04-15T08:28:47;11.70;80.00
7844;DHT22;3967;48.702;9.326;2023-04-15T08:31:15;11.80;78.80
7844;DHT22;3967;48.702;9.326;2023-04-15T08:33:42;11.90;79.10
7844;DHT22;3967;48.702;9.326;2023-04-15T08:36:09;12.00;77.60
7844;DHT22;3967;48.702;9.326;2023-04-15T08:38:36;12.10;78.40
7844;DHT22;3967;48.702;9.326;2023-04-15T08:41:16;12.20;77.30
7844;DHT22;3967;48.702;9.326;2023-04-15T08:43:52;12.30;78.00
7844;DHT22;3967;48.702;9.326;2023-04-15T08:46:20;12.40;77.40
7844;DHT22;3967;48.702;9.326;2023-04-15T08:48:48;12.70;77.30
7844;DHT22;3967;48.702;9.326;2023-04-15T08:51:17;13.00;76.30
7844;DHT22;3967;48.702;9.326;2023-04-15T08:53:44;12.90;75.10
7844;DHT22;3967;48.702;9.326;2023-04-15T08:56:14;13.30;76.10
7844;DHT22;3967;48.702;9.326;2023-04-15T08:58:45;13.30;74.60
7844;DHT22;3967;48.702;9.326;2023-04-15T09:01:12;13.30;71.60
7844;DHT22;3967;48.702;9.326;2023-04-15T09:03:39;13.30;72.00
7844;DHT22;3967;48.702;9.326;2023-04-15T09:06:07;13.60;72.40
7844;DHT22;3967;48.702;9.326;2023-04-15T09:08:34;13.40;71.00
7844;DHT22;3967;48.702;9.326;2023-04-15T09:11:04;13.60;73.90
7844;DHT22;3967;48.702;9.326;2023-04-15T09:13:30;13.90;73.60
7844;DHT22;3967;48.702;9.326;2023-04-15T09:15:57;13.90;70.30
7844;DHT22;3967;48.702;9.326;2023-04-15T09:18:32;14.20;71.10
7844;DHT22;3967;48.702;9.326;2023-04-15T09:21:13;14.30;70.20
7844;DHT22;3967;48.702;9.326;2023-04-15T09:23:56;14.40;70.20
7844;DHT22;3967;48.702;9.326;2023-04-15T09:26:31;14.60;66.70
7844;DHT22;3967;48.702;9.326;2023-04-15T09:29:05;14.70;66.70
7844;DHT22;3967;48.702;9.326;2023-04-15T09:31:32;14.80;64.10
7844;DHT22;3967;48.702;9.326;2023-04-15T09:33:59;14.80;62.30
7844;DHT22;3967;48.702;9.326;2023-04-15T09:36:26;14.80;63.70
7844;DHT22;3967;48.702;9.326;2023-04-15T09:38:57;14.90;64.40
7844;DHT22;3967;48.702;9.326;2023-04-15T09:41:25;15.00;64.20
7844;DHT22;3967;48.702;9.326;2023-04-15T09:43:52;14.70;65.10
7844;DHT22;3967;48.702;9.326;2023-04-15T09:46:19;14.90;65.30
7844;DHT22;3967;48.702;9.326;2023-04-15T09:49:06;14.90;67.40
7844;DHT22;3967;48.702;9.326;2023-04-15T09:51:34;15.00;66.10
7844;DHT22;3967;48.702;9.326;2023-04-15T09:54:01;14.70;64.30
7844;DHT22;3967;48.702;9.326;2023-04-15T09:56:36;14.60;65.70
7844;DHT22;3967;48.702;9.326;2023-04-15T09:59:08;14.70;66.50
7844;DHT22;3967;48.702;9.326;2023-04-15T10:01:35;14.70;66.00
7844;DHT22;3967;48.702;9.326;2023-04-15T10:04:04;14.50;65.60
7844;DHT22;3967;48.702;9.326;2023-04-15T10:06:31;14.50;65.20
7844;DHT22;3967;48.702;9.326;2023-04-15T10:08:59;14.70;65.90
7844;DHT22;3967;48.702;9.326;2023-04-15T10:11:28;14.70;65.90
7844;DHT22;3967;48.702;9.326;2023-04-15T10:13:57;14.80;67.40
7844;DHT22;3967;48.702;9.326;2023-04-15T10:16:26;14.70;67.10
7844;DHT22;3967;48.702;9.326;2023-04-15T10:18:55;14.40;63.90
7844;DHT22;3967;48.702;9.326;2023-04-15T10:21:21;14.50;65.00
7844;DHT22;3967;48.702;9.326;2023-04-15T10:23:49;14.40;67.00
7844;DHT22;3967;48.702;9.326;2023-04-15T10:26:16;14.20;64.80
7844;DHT22;3967;48.702;9.326;2023-04-15T10:28:44;14.30;66.00
7844;DHT22;3967;48.702;9.326;2023-04-15T10:31:13;14.50;64.70
7844;DHT22;3967;48.702;9.326;2023-04-15T10:33:41;14.40;65.40
7844;DHT22;3967;48.702;9.326;2023-04-15T10:36:09;14.70;65.00
7844;DHT22;3967;48.702;9.326;2023-04-15T10:38:40;14.70;64.10
7844;DHT22;3967;48.702;9.326;2023-04-15T10:41:15;14.90;64.60
7844;DHT22;3967;48.702;9.326;2023-04-15T10:43:50;14.80;63.60
7844;DHT22;3967;48.702;9.326;2023-04-15T10:49:12;14.80;61.10
7844;DHT22;3967;48.702;9.326;2023-04-15T10:51:44;14.90;61.90
7844;DHT22;3967;48.702;9.326;2023-04-15T10:56:44;15.20;61.40
7844;DHT22;3967;48.702;9.326;2023-04-15T10:59:11;15.10;62.40
7844;DHT22;3967;48.702;9.326;2023-04-15T11:12:53;15.30;62.00
7844;DHT22;3967;48.702;9.326;2023-04-15T11:15:42;15.20;61.90
7844;DHT22;3967;48.702;9.326;2023-04-15T11:18:13;15.20;62.80
7844;DHT22;3967;48.702;9.326;2023-04-15T11:20:51;15.10;64.00
7844;DHT22;3967;48.702;9.326;2023-04-15T11:23:41;15.00;63.00
7844;DHT22;3967;48.702;9.326;2023-04-15T11:26:12;15.10;63.60
7844;DHT22;3967;48.702;9.326;2023-04-15T11:28:44;15.30;62.90
7844;DHT22;3967;48.702;9.326;2023-04-15T11:31:16;15.10;62.10
7844;DHT22;3967;48.702;9.326;2023-04-15T11:33:55;14.70;58.90
7844;DHT22;3967;48.702;9.326;2023-04-15T11:36:27;14.70;59.70
7844;DHT22;3967;48.702;9.326;2023-04-15T11:38:57;14.70;59.60
7844;DHT22;3967;48.702;9.326;2023-04-15T11:41:24;14.90;60.20
7844;DHT22;3967;48.702;9.326;2023-04-15T11:43:51;15.00;60.80
7844;DHT22;3967;48.702;9.326;2023-04-15T11:46:19;15.00;59.70
7844;DHT22;3967;48.702;9.326;2023-04-15T11:48:46;15.30;60.10
7844;DHT22;3967;48.702;9.326;2023-04-15T11:51:14;15.50;59.20
7844;DHT22;3967;48.702;9.326;2023-04-15T11:56:09;15.70;58.10
7844;DHT22;3967;48.702;9.326;2023-04-15T11:58:37;15.70;57.70
7844;DHT22;3967;48.702;9.326;2023-04-15T12:01:05;15.80;57.60
7844;DHT22;3967;48.702;9.326;2023-04-15T12:06:19;15.70;58.30
7844;DHT22;3967;48.702;9.326;2023-04-15T12:16:29;15.00;61.20
7844;DHT22;3967;48.702;9.326;2023-04-15T12:18:58;14.50;64.10
7844;DHT22;3967;48.702;9.326;2023-04-15T12:21:33;13.70;69.70
7844;DHT22;3967;48.702;9.326;2023-04-15T12:24:08;14.20;71.90
7844;DHT22;3967;48.702;9.326;2023-04-15T12:26:43;14.60;71.80
7844;DHT22;3967;48.702;9.326;2023-04-15T12:29:11;14.10;68.50
7844;DHT22;3967;48.702;9.326;2023-04-15T12:31:49;14.70;74.10
7844;DHT22;3967;48.702;9.326;2023-04-15T12:34:18;14.70;71.30
7844;DHT22;3967;48.702;9.326;2023-04-15T12:36:51;15.10;73.30
7844;DHT22;3967;48.702;9.326;2023-04-15T12:39:27;15.00;73.60
7844;DHT22;3967;48.702;9.326;2023-04-15T12:41:56;14.80;72.40
7844;DHT22;3967;48.702;9.326;2023-04-15T12:44:23;14.40;69.50
7844;DHT22;3967;48.702;9.326;2023-04-15T12:46:50;14.10;69.70
7844;DHT22;3967;48.702;9.326;2023-04-15T12:49:22;13.70;73.70
7844;DHT22;3967;48.702;9.326;2023-04-15T12:51:51;13.10;79.00
7844;DHT22;3967;48.702;9.326;2023-04-15T12:54:19;12.40;83.10
7844;DHT22;3967;48.702;9.326;2023-04-15T12:56:47;11.60;91.10
7844;DHT22;3967;48.702;9.326;2023-04-15T12:59:14;11.40;93.10
7844;DHT22;3967;48.702;9.326;2023-04-15T13:01:44;11.50;94.20
7844;DHT22;3967;48.702;9.326;2023-04-15T13:04:11;11.50;94.30
7844;DHT22;3967;48.702;9.326;2023-04-15T13:06:37;11.10;92.90
7844;DHT22;3967;48.702;9.326;2023-04-15T13:09:04;11.20;93.80
7844;DHT22;3967;48.702;9.326;2023-04-15T13:11:34;11.00;95.30
7844;DHT22;3967;48.702;9.326;2023-04-15T13:14:06;11.00;95.60
7844;DHT22;3967;48.702;9.326;2023-04-15T13:16:34;11.10;96.40
7844;DHT22;3967;48.702;9.326;2023-04-15T13:19:02;11.40;95.80
7844;DHT22;3967;48.702;9.326;2023-04-15T13:21:29;11.70;95.80
7844;DHT22;3967;48.702;9.326;2023-04-15T13:23:57;11.80;94.20
7844;DHT22;3967;48.702;9.326;2023-04-15T13:26:24;12.10;93.70
7844;DHT22;3967;48.702;9.326;2023-04-15T13:28:52;12.20;91.60
7844;DHT22;3967;48.702;9.326;2023-04-15T13:31:19;12.50;91.50
7844;DHT22;3967;48.702;9.326;2023-04-15T13:33:45;12.80;91.50
7844;DHT22;3967;48.702;9.326;2023-04-15T13:36:12;12.70;89.00
7844;DHT22;3967;48.702;9.326;2023-04-15T13:38:39;12.80;89.60
7844;DHT22;3967;48.702;9.326;2023-04-15T13:41:06;12.90;90.10
7844;DHT22;3967;48.702;9.326;2023-04-15T13:43:33;12.90;88.40
7844;DHT22;3967;48.702;9.326;2023-04-15T13:46:00;13.00;88.20
7844;DHT22;3967;48.702;9.326;2023-04-15T13:48:27;13.10;87.70
7844;DHT22;3967;48.702;9.326;2023-04-15T13:50:54;13.10;85.30
7844;DHT22;3967;48.702;9.326;2023-04-15T13:53:21;13.20;87.10
7844;DHT22;3967;48.702;9.326;2023-04-15T13:56:04;13.20;83.30
7844;DHT22;3967;48.702;9.326;2023-04-15T13:58:31;13.00;79.40
7844;DHT22;3967;48.702;9.326;2023-04-15T14:00:58;12.80;81.20
7844;DHT22;3967;48.702;9.326;2023-04-15T14:03:25;12.90;80.70
7844;DHT22;3967;48.702;9.326;2023-04-15T14:05:52;12.80;80.50
7844;DHT22;3967;48.702;9.326;2023-04-15T14:08:22;12.70;79.00
7844;DHT22;3967;48.702;9.326;2023-04-15T14:10:50;12.70;78.20
7844;DHT22;3967;48.702;9.326;2023-04-15T14:13:16;12.50;73.90
7844;DHT22;3967;48.702;9.326;2023-04-15T14:15:45;12.70;76.50
7844;DHT22;3967;48.702;9.326;2023-04-15T14:18:12;12.80;77.50
7844;DHT22;3967;48.702;9.326;2023-04-15T14:20:39;13.00;77.80
7844;DHT22;3967;48.702;9.326;2023-04-15T14:23:06;13.20;77.30
7844;DHT22;3967;48.702;9.326;2023-04-15T14:25:32;13.00;70.10
7844;DHT22;3967;48.702;9.326;2023-04-15T14:28:00;12.80;71.90
7844;DHT22;3967;48.702;9.326;2023-04-15T14:30:27;12.80;69.60
7844;DHT22;3967;48.702;9.326;2023-04-15T14:32:54;12.80;69.40
7844;DHT22;3967;48.702;9.326;2023-04-15T14:35:21;12.60;67.60
7844;DHT22;3967;48.702;9.326;2023-04-15T14:37:50;12.80;70.00
7844;DHT22;3967;48.702;9.326;2023-04-15T14:40:16;12.60;68.50
7844;DHT22;3967;48.702;9.326;2023-04-15T14:42:43;12.60;67.90
7844;DHT22;3967;48.702;9.326;2023-04-15T14:45:10;12.60;69.40
7844;DHT22;3967;48.702;9.326;2023-04-15T14:47:37;12.70;69.90
7844;DHT22;3967;48.702;9.326;2023-04-15T14:50:04;12.80;69.70
7844;DHT22;3967;48.702;9.326;2023-04-15T14:52:31;12.90;68.70
7844;DHT22;3967;48.702;9.326;2023-04-15T14:55:12;12.70;66.20
7844;DHT22;3967;48.702;9.326;2023-04-15T14:57:41;12.40;64.40
7844;DHT22;3967;48.702;9.326;2023-04-15T15:00:09;12.50;64.90
7844;DHT22;3967;48.702;9.326;2023-04-15T15:02:39;12.70;65.70
7844;DHT22;3967;48.702;9.326;2023-04-15T15:05:09;12.50;65.70
7844;DHT22;3967;48.702;9.326;2023-04-15T15:07:37;12.30;66.50
7844;DHT22;3967;48.702;9.326;2023-04-15T15:10:04;12.10;66.10
7844;DHT22;3967;48.702;9.326;2023-04-15T15:12:32;11.80;68.10
7844;DHT22;3967;48.702;9.326;2023-04-15T15:15:01;11.80;68.40
7844;DHT22;3967;48.702;9.326;2023-04-15T15:17:35;11.70;68.60
7844;DHT22;3967;48.702;9.326;2023-04-15T15:20:02;11.60;71.10
7844;DHT22;3967;48.702;9.326;2023-04-15T15:22:29;11.60;70.70
7844;DHT22;3967;48.702;9.326;2023-04-15T15:24:56;11.60;70.50
7844;DHT22;3967;48.702;9.326;2023-04-15T15:27:24;11.40;70.80
7844;DHT22;3967;48.702;9.326;2023-04-15T15:29:51;11.50;70.80
7844;DHT22;3967;48.702;9.326;2023-04-15T15:32:18;11.40;72.30
7844;DHT22;3967;48.702;9.326;2023-04-15T15:34:45;11.40;73.30
7844;DHT22;3967;48.702;9.326;2023-04-15T15:37:11;11.30;74.00
7844;DHT22;3967;48.702;9.326;2023-04-15T15:39:38;11.20;73.80
7844;DHT22;3967;48.702;9.326;2023-04-15T15:42:05;11.10;74.30
7844;DHT22;3967;48.702;9.326;2023-04-15T15:44:32;11.10;74.80
7844;DHT22;3967;48.702;9.326;2023-04-15T15:47:00;11.10;75.10
7844;DHT22;3967;48.702;9.326;2023-04-15T15:49:27;11.20;76.70
7844;DHT22;3967;48.702;9.326;2023-04-15T15:51:55;11.30;77.30
7844;DHT22;3967;48.702;9.326;2023-04-15T15:54:22;11.30;76.50
7844;DHT22;3967;48.702;9.326;2023-04-15T15:56:49;11.50;78.30
7844;DHT22;3967;48.702;9.326;2023-04-15T15:59:16;11.50;79.00
7844;DHT22;3967;48.702;9.326;2023-04-15T16:01:43;11.50;78.40
7844;DHT22;3967;48.702;9.326;2023-04-15T16:04:10;11.50;79.00
7844;DHT22;3967;48.702;9.326;2023-04-15T16:06:37;11.70;79.10
7844;DHT22;3967;48.702;9.326;2023-04-15T16:09:04;11.40;78.00
7844;DHT22;3967;48.702;9.326;2023-04-15T16:11:32;11.40;78.20
7844;DHT22;3967;48.702;9.326;2023-04-15T16:13:59;11.40;80.20
7844;DHT22;3967;48.702;9.326;2023-04-15T16:16:25;11.50;81.20
7844;DHT22;3967;48.702;9.326;2023-04-15T16:18:52;11.50;80.70
7844;DHT22;3967;48.702;9.326;2023-04-15T16:21:19;11.50;81.30
7844;DHT22;3967;48.702;9.326;2023-04-15T16:23:46;11.20;81.10
7844;DHT22;3967;48.702;9.326;2023-04-15T16:26:13;11.00;83.40
7844;DHT22;3967;48.702;9.326;2023-04-15T16:28:40;10.90;85.00
7844;DHT22;3967;48.702;9.326;2023-04-15T16:31:07;10.70;86.60
7844;DHT22;3967;48.702;9.326;2023-04-15T16:33:34;10.70;89.20
7844;DHT22;3967;48.702;9.326;2023-04-15T16:36:01;10.60;90.90
7844;DHT22;3967;48.702;9.326;2023-04-15T16:38:27;10.60;91.50
7844;DHT22;3967;48.702;9.326;2023-04-15T16:40:58;10.50;92.60
7844;DHT22;3967;48.702;9.326;2023-04-15T16:43:25;10.50;92.90